USTRANSCOM 7615


PHNL
Daniel K Inouye International Airport
Honolulu, Hawaii, US
YBAS
Alice Springs Airport
Alice Springs, , AU

Route Details

Aircraft Information
Primary: Boeing 747-400BCF
Backup: Boeing 777-200LRF
Route Data
Distance: 4813nm
Sched. Duration: 11h 05m
Avg. Duration: 10h 99m (-6m)
Times Flown: 3
Recm'd Route: NDJ A222 UKS TASAK B589 TEDED B589A KAPKI KAPSO R210 CS J64 AS
Planned Altitude: 32,000ft
Origin Wx: PHNL 021553Z 01005KT 10SM FEW025 SCT060 24/18 A3000 RMK AO2 SLP158 T02390183
Dest. Wx: YBAS 021630Z AUTO 16005KT 9999 // NCD 08/01 Q1025 RF00.0/000.0
Notes: USTRANSCOM CONTRACT FLIGHT

Financial History
Total Freight: 542,070lbs
Average Load: 180,690lbs/flt
Fuel Used: 592,259lbs
Avg. Fuel Used: 197,420lbs/flt
Fuel Expense: $408,659
Avg. Fuel Expense: $136,220
Avg. Fuel Cost: $0.69/lbs
Total Gross Income: $4,967,168
Pilot Pay: $627
Total Expenses: $536,610
Total Revenue: $4,013,192
Average Revenue: $1,655,722.71